Varnadiep — PBIB — position and weather

sailwx.info

Track history (hours):
 
Tides and Currents Weather Stations Pressure Air Temp Water Temp Dewpoint Dewpoint Depression Visibility Wind Speed Wind Dir Waves Ship Positions

Varnadiep

Last reported at 2015-May-26 12:07 UTC. Time now 2015-May-26 15:53 UTC.
Position N 36°20' W 002°06'.

Length 118 m; draft 7.5 m.

Type: Cargo ship. MMSI: 244729000.

Date/timePositionNaut miles runAvg speedWind from/ knotsBaromVisibWave heightAir tempDewpointWater temp
2015-May-26 12:07N 36°20' W 002°06'15212.1
2015-May-25 23:33N 35°59' W 005°12'1312.8
2015-May-25 22:34N 35°57' W 005°28'8311.7
2015-May-25 15:29N 36°06' W 007°10'6911.6
2015-May-25 09:32N 36°24' W 008°32'1111.8
2015-May-25 08:33N 36°27' W 008°46'1211.8
2015-May-25 07:34N 36°30' W 009°00'2511.5
2015-May-25 05:26N 36°42' W 009°27'1112.0
2015-May-25 04:33N 36°51' W 009°34'1212.3
2015-May-25 03:33N 37°03' W 009°38'1211.8
2015-May-25 02:33N 37°14' W 009°41'1212.2
2015-May-25 01:33N 37°26' W 009°44'1212.1
2015-May-25 00:33N 37°38' W 009°48'1212.3
2015-May-24 23:33N 37°50' W 009°51'1212.3
2015-May-24 22:34N 38°02' W 009°54'1212.0
2015-May-24 21:33N 38°14' W 009°58'1212.0
2015-May-24 20:33N 38°25' W 010°02'1212.0
2015-May-24 19:33N 38°37' W 010°05'1211.8
2015-May-24 18:33N 38°49' W 010°06'1211.7
2015-May-24 17:33N 39°00' W 010°06'1111.5
2015-May-24 16:33N 39°12' W 010°06'1212.0
2015-May-24 15:33N 39°24' W 010°06'1211.9
2015-May-24 14:33N 39°36' W 010°06'  
2015-May-21 20:25N 50°10' W 001°52'4912.5
2015-May-21 16:33N 50°24' W 000°39'1613.4
2015-May-21 15:23N 50°29' W 000°16'2212.1
2015-May-21 13:33N 50°35' E 000°17'1110.9
2015-May-21 12:33N 50°38' E 000°33'1010.3
2015-May-21 11:33N 50°44' E 000°47'1110.9
2015-May-21 10:33N 50°50' E 001°01'1312.7
2015-May-21 09:33N 50°59' E 001°16'1514.8
2015-May-21 08:34N 51°08' E 001°34'1413.6
2015-May-21 07:33N 51°18' E 001°49'1212.3
2015-May-21 06:34N 51°29' E 001°59'1111.0
2015-May-21 05:33N 51°37' E 002°11'1110.2
2015-May-21 04:27N 51°46' E 002°23'9311.7
2015-May-20 20:29N 52°57' E 004°00'4010.1
2015-May-20 16:32N 53°29' E 004°40'1111.8
2015-May-20 15:33N 53°33' E 004°58'1212.3
2015-May-20 14:34N 53°37' E 005°18'1212.3
2015-May-20 13:33N 53°41' E 005°37'1211.8
2015-May-20 12:33N 53°45' E 005°56'4911.0
2015-May-20 08:10N 53°58' E 007°15'4 6.0
2015-May-20 07:33N 53°59' E 007°22'1111.4
2015-May-20 06:33N 54°02' E 007°40'1212.3
2015-May-20 05:33N 54°01' E 008°01'1312.8
2015-May-20 04:33N 53°59' E 008°23'1313.4
2015-May-20 03:33N 53°53' E 008°43'1110.7
2015-May-20 02:33N 53°51' E 009°01'5 5.2
2015-May-20 01:33N 53°54' E 009°09'6 6.3
2015-May-20 00:33N 53°58' E 009°16'5 5.0
2015-May-19 23:33N 54°03' E 009°18'8 7.6
2015-May-19 22:32N 54°10' E 009°25'5 5.6
2015-May-19 21:33N 54°12' E 009°34'7 7.2
2015-May-19 20:33N 54°18' E 009°41'7 7.4
2015-May-19 19:33N 54°22' E 009°52'7 6.7
2015-May-19 18:33N 54°22' E 010°04'3 2.9
2015-May-19 17:33N 54°22' E 010°09'4 3.7
2015-May-19 16:33N 54°25' E 010°12'1110.7
2015-May-19 15:33N 54°32' E 010°26'1511.2
2015-May-19 14:13N 54°35' E 010°51'811.8
2015-May-19 13:33N 54°36' E 011°05'1111.3
2015-May-19 12:33N 54°33' E 011°23'1211.7
2015-May-19 11:33N 54°27' E 011°41'1211.7
2015-May-19 10:33N 54°26' E 012°01'2611.2
2015-May-19 08:16N 54°44' E 012°33'6611.5
2015-May-19 02:33N 54°38' E 014°27'1212.2
2015-May-19 01:33N 54°40' E 014°48'1212.2
2015-May-19 00:33N 54°41' E 015°08'11212.1
2015-May-18 15:18N 54°59' E 018°20'911.3
2015-May-18 14:33N 54°59' E 018°35'1211.9
2015-May-18 13:34N 54°55' E 018°54'1212.1
2015-May-18 12:32N 54°50' E 019°14'1211.8
2015-May-18 11:33N 54°46' E 019°33'11 0.9
2015-May-17 22:26N 54°38' E 019°48'2 1.4
2015-May-17 21:06N 54°40' E 019°50'3 4.0
2015-May-17 20:28N 54°41' E 019°46'5 5.6
2015-May-17 19:33N 54°44' E 019°39'1312.7
2015-May-17 18:33N 54°51' E 019°21'  
Track history (hours):
 
Tides and Currents Weather Stations Pressure Air Temp Water Temp Dewpoint Dewpoint Depression Visibility Wind Speed Wind Dir Waves Ship Positions

Varnadiep

Last reported at 2015-May-26 12:07 UTC. Time now 2015-May-26 15:53 UTC.
Position N 36°20' W 002°06'.

Length 118 m; draft 7.5 m.

Type: Cargo ship. MMSI: 244729000.

Date/timePositionNaut miles runAvg speedWind from/ knotsBaromVisibWave heightAir tempDewpointWater temp
2015-May-26 12:07N 36°20' W 002°06'15212.1
2015-May-25 23:33N 35°59' W 005°12'1312.8
2015-May-25 22:34N 35°57' W 005°28'8311.7
2015-May-25 15:29N 36°06' W 007°10'6911.6
2015-May-25 09:32N 36°24' W 008°32'1111.8
2015-May-25 08:33N 36°27' W 008°46'1211.8
2015-May-25 07:34N 36°30' W 009°00'2511.5
2015-May-25 05:26N 36°42' W 009°27'1112.0
2015-May-25 04:33N 36°51' W 009°34'1212.3
2015-May-25 03:33N 37°03' W 009°38'1211.8
2015-May-25 02:33N 37°14' W 009°41'1212.2
2015-May-25 01:33N 37°26' W 009°44'1212.1
2015-May-25 00:33N 37°38' W 009°48'1212.3
2015-May-24 23:33N 37°50' W 009°51'1212.3
2015-May-24 22:34N 38°02' W 009°54'1212.0
2015-May-24 21:33N 38°14' W 009°58'1212.0
2015-May-24 20:33N 38°25' W 010°02'1212.0
2015-May-24 19:33N 38°37' W 010°05'1211.8
2015-May-24 18:33N 38°49' W 010°06'1211.7
2015-May-24 17:33N 39°00' W 010°06'1111.5
2015-May-24 16:33N 39°12' W 010°06'1212.0
2015-May-24 15:33N 39°24' W 010°06'1211.9
2015-May-24 14:33N 39°36' W 010°06'  
2015-May-21 20:25N 50°10' W 001°52'4912.5
2015-May-21 16:33N 50°24' W 000°39'1613.4
2015-May-21 15:23N 50°29' W 000°16'2212.1
2015-May-21 13:33N 50°35' E 000°17'1110.9
2015-May-21 12:33N 50°38' E 000°33'1010.3
2015-May-21 11:33N 50°44' E 000°47'1110.9
2015-May-21 10:33N 50°50' E 001°01'1312.7
2015-May-21 09:33N 50°59' E 001°16'1514.8
2015-May-21 08:34N 51°08' E 001°34'1413.6
2015-May-21 07:33N 51°18' E 001°49'1212.3
2015-May-21 06:34N 51°29' E 001°59'1111.0
2015-May-21 05:33N 51°37' E 002°11'1110.2
2015-May-21 04:27N 51°46' E 002°23'9311.7
2015-May-20 20:29N 52°57' E 004°00'4010.1
2015-May-20 16:32N 53°29' E 004°40'1111.8
2015-May-20 15:33N 53°33' E 004°58'1212.3
2015-May-20 14:34N 53°37' E 005°18'1212.3
2015-May-20 13:33N 53°41' E 005°37'1211.8
2015-May-20 12:33N 53°45' E 005°56'4911.0
2015-May-20 08:10N 53°58' E 007°15'4 6.0
2015-May-20 07:33N 53°59' E 007°22'1111.4
2015-May-20 06:33N 54°02' E 007°40'1212.3
2015-May-20 05:33N 54°01' E 008°01'1312.8
2015-May-20 04:33N 53°59' E 008°23'1313.4
2015-May-20 03:33N 53°53' E 008°43'1110.7
2015-May-20 02:33N 53°51' E 009°01'5 5.2
2015-May-20 01:33N 53°54' E 009°09'6 6.3
2015-May-20 00:33N 53°58' E 009°16'5 5.0
2015-May-19 23:33N 54°03' E 009°18'8 7.6
2015-May-19 22:32N 54°10' E 009°25'5 5.6
2015-May-19 21:33N 54°12' E 009°34'7 7.2
2015-May-19 20:33N 54°18' E 009°41'7 7.4
2015-May-19 19:33N 54°22' E 009°52'7 6.7
2015-May-19 18:33N 54°22' E 010°04'3 2.9
2015-May-19 17:33N 54°22' E 010°09'4 3.7
2015-May-19 16:33N 54°25' E 010°12'1110.7
2015-May-19 15:33N 54°32' E 010°26'1511.2
2015-May-19 14:13N 54°35' E 010°51'811.8
2015-May-19 13:33N 54°36' E 011°05'1111.3
2015-May-19 12:33N 54°33' E 011°23'1211.7
2015-May-19 11:33N 54°27' E 011°41'1211.7
2015-May-19 10:33N 54°26' E 012°01'2611.2
2015-May-19 08:16N 54°44' E 012°33'6611.5
2015-May-19 02:33N 54°38' E 014°27'1212.2
2015-May-19 01:33N 54°40' E 014°48'1212.2
2015-May-19 00:33N 54°41' E 015°08'11212.1
2015-May-18 15:18N 54°59' E 018°20'911.3
2015-May-18 14:33N 54°59' E 018°35'1211.9
2015-May-18 13:34N 54°55' E 018°54'1212.1
2015-May-18 12:32N 54°50' E 019°14'1211.8
2015-May-18 11:33N 54°46' E 019°33'11 0.9
2015-May-17 22:26N 54°38' E 019°48'2 1.4
2015-May-17 21:06N 54°40' E 019°50'3 4.0
2015-May-17 20:28N 54°41' E 019°46'5 5.6
2015-May-17 19:33N 54°44' E 019°39'1312.7
2015-May-17 18:33N 54°51' E 019°21'  

Dump ship's entire track history